sensor_id;sensor_type;location;lat;lon;timestamp;temperature;humidity
14687;DHT22;7431;49.440;11.084;2023-03-24T00:00:07;13.20;99.90
14687;DHT22;7431;49.440;11.084;2023-03-24T00:02:37;13.20;99.90
14687;DHT22;7431;49.440;11.084;2023-03-24T00:05:06;13.20;99.90
14687;DHT22;7431;49.440;11.084;2023-03-24T00:07:33;13.10;99.90
14687;DHT22;7431;49.440;11.084;2023-03-24T00:09:59;13.10;99.90
14687;DHT22;7431;49.440;11.084;2023-03-24T00:12:25;13.10;99.90
14687;DHT22;7431;49.440;11.084;2023-03-24T00:14:51;13.10;99.90
14687;DHT22;7431;49.440;11.084;2023-03-24T00:17:19;13.10;99.90
14687;DHT22;7431;49.440;11.084;2023-03-24T00:19:52;13.10;99.90
14687;DHT22;7431;49.440;11.084;2023-03-24T00:22:20;13.10;99.90
14687;DHT22;7431;49.440;11.084;2023-03-24T00:24:46;13.10;99.90
14687;DHT22;7431;49.440;11.084;2023-03-24T00:27:12;13.10;99.90
14687;DHT22;7431;49.440;11.084;2023-03-24T00:29:39;13.10;99.90
14687;DHT22;7431;49.440;11.084;2023-03-24T00:32:05;13.10;99.90
14687;DHT22;7431;49.440;11.084;2023-03-24T00:34:32;13.10;99.90
14687;DHT22;7431;49.440;11.084;2023-03-24T00:37:03;13.10;99.90
14687;DHT22;7431;49.440;11.084;2023-03-24T00:39:29;13.20;99.90
14687;DHT22;7431;49.440;11.084;2023-03-24T00:41:55;13.20;99.90
14687;DHT22;7431;49.440;11.084;2023-03-24T00:44:23;13.20;99.90
14687;DHT22;7431;49.440;11.084;2023-03-24T00:46:50;13.20;99.90
14687;DHT22;7431;49.440;11.084;2023-03-24T00:49:26;13.20;99.90
14687;DHT22;7431;49.440;11.084;2023-03-24T00:52:11;13.20;99.90
14687;DHT22;7431;49.440;11.084;2023-03-24T00:54:38;13.20;99.90
14687;DHT22;7431;49.440;11.084;2023-03-24T00:57:08;13.90;99.90
14687;DHT22;7431;49.440;11.084;2023-03-24T00:59:37;13.20;99.90
14687;DHT22;7431;49.440;11.084;2023-03-24T01:02:10;13.20;99.90
14687;DHT22;7431;49.440;11.084;2023-03-24T01:04:38;13.20;99.90
14687;DHT22;7431;49.440;11.084;2023-03-24T01:07:04;13.20;99.90
14687;DHT22;7431;49.440;11.084;2023-03-24T01:09:33;13.10;99.90
14687;DHT22;7431;49.440;11.084;2023-03-24T01:12:02;13.10;99.90
14687;DHT22;7431;49.440;11.084;2023-03-24T01:14:29;13.10;99.90
14687;DHT22;7431;49.440;11.084;2023-03-24T01:16:55;13.00;99.90
14687;DHT22;7431;49.440;11.084;2023-03-24T01:19:20;13.00;99.90
14687;DHT22;7431;49.440;11.084;2023-03-24T01:21:47;12.90;99.90
14687;DHT22;7431;49.440;11.084;2023-03-24T01:24:15;12.90;99.90
14687;DHT22;7431;49.440;11.084;2023-03-24T01:26:42;12.80;99.90
14687;DHT22;7431;49.440;11.084;2023-03-24T01:29:08;12.80;99.90
14687;DHT22;7431;49.440;11.084;2023-03-24T01:31:34;12.70;99.90
14687;DHT22;7431;49.440;11.084;2023-03-24T01:34:00;12.70;99.90
14687;DHT22;7431;49.440;11.084;2023-03-24T01:36:26;12.70;99.90
14687;DHT22;7431;49.440;11.084;2023-03-24T01:38:51;12.70;99.90
14687;DHT22;7431;49.440;11.084;2023-03-24T01:41:17;12.70;99.90
14687;DHT22;7431;49.440;11.084;2023-03-24T01:43:42;12.70;99.90
14687;DHT22;7431;49.440;11.084;2023-03-24T01:46:21;12.70;99.90
14687;DHT22;7431;49.440;11.084;2023-03-24T01:48:54;12.60;99.90
14687;DHT22;7431;49.440;11.084;2023-03-24T01:51:29;12.60;99.90
14687;DHT22;7431;49.440;11.084;2023-03-24T01:56:38;12.60;99.90
14687;DHT22;7431;49.440;11.084;2023-03-24T01:59:10;12.50;99.90
14687;DHT22;7431;49.440;11.084;2023-03-24T02:01:36;12.50;99.90
14687;DHT22;7431;49.440;11.084;2023-03-24T02:04:04;12.50;99.90
14687;DHT22;7431;49.440;11.084;2023-03-24T02:06:35;12.40;99.90
14687;DHT22;7431;49.440;11.084;2023-03-24T02:09:06;12.40;99.90
14687;DHT22;7431;49.440;11.084;2023-03-24T02:11:33;12.30;99.90
14687;DHT22;7431;49.440;11.084;2023-03-24T02:13:59;12.30;99.90
14687;DHT22;7431;49.440;11.084;2023-03-24T02:25:26;12.30;99.90
14687;DHT22;7431;49.440;11.084;2023-03-24T02:42:43;12.40;99.90
14687;DHT22;7431;49.440;11.084;2023-03-24T02:45:36;12.40;99.90
14687;DHT22;7431;49.440;11.084;2023-03-24T02:51:47;12.40;99.90
14687;DHT22;7431;49.440;11.084;2023-03-24T02:59:02;12.40;99.90
14687;DHT22;7431;49.440;11.084;2023-03-24T03:04:02;12.40;99.90
14687;DHT22;7431;49.440;11.084;2023-03-24T03:06:32;12.30;99.90
14687;DHT22;7431;49.440;11.084;2023-03-24T03:09:03;12.40;99.90
14687;DHT22;7431;49.440;11.084;2023-03-24T03:11:30;12.40;99.90
14687;DHT22;7431;49.440;11.084;2023-03-24T03:14:02;12.40;99.90
14687;DHT22;7431;49.440;11.084;2023-03-24T03:16:40;12.40;99.90
14687;DHT22;7431;49.440;11.084;2023-03-24T03:19:26;12.50;99.90
14687;DHT22;7431;49.440;11.084;2023-03-24T03:21:55;12.50;99.90
14687;DHT22;7431;49.440;11.084;2023-03-24T03:24:26;12.50;99.90
14687;DHT22;7431;49.440;11.084;2023-03-24T03:26:59;12.50;99.90
14687;DHT22;7431;49.440;11.084;2023-03-24T03:29:30;12.40;99.90
14687;DHT22;7431;49.440;11.084;2023-03-24T03:32:01;12.50;99.90
14687;DHT22;7431;49.440;11.084;2023-03-24T03:34:49;12.40;99.90
14687;DHT22;7431;49.440;11.084;2023-03-24T03:37:32;12.40;99.90
14687;DHT22;7431;49.440;11.084;2023-03-24T03:40:03;12.40;99.90
14687;DHT22;7431;49.440;11.084;2023-03-24T03:42:30;12.40;99.90
14687;DHT22;7431;49.440;11.084;2023-03-24T03:44:56;12.40;99.90
14687;DHT22;7431;49.440;11.084;2023-03-24T03:47:22;12.40;99.90
14687;DHT22;7431;49.440;11.084;2023-03-24T03:49:48;12.40;99.90
14687;DHT22;7431;49.440;11.084;2023-03-24T03:52:15;12.30;99.90
14687;DHT22;7431;49.440;11.084;2023-03-24T03:54:42;12.40;99.90
14687;DHT22;7431;49.440;11.084;2023-03-24T03:57:09;12.40;99.90
14687;DHT22;7431;49.440;11.084;2023-03-24T03:59:37;12.40;99.90
14687;DHT22;7431;49.440;11.084;2023-03-24T04:02:20;12.30;99.90
14687;DHT22;7431;49.440;11.084;2023-03-24T04:04:54;12.20;99.90
14687;DHT22;7431;49.440;11.084;2023-03-24T04:10:22;12.20;99.90
14687;DHT22;7431;49.440;11.084;2023-03-24T04:13:21;12.10;99.90
14687;DHT22;7431;49.440;11.084;2023-03-24T04:15:54;12.20;99.90
14687;DHT22;7431;49.440;11.084;2023-03-24T04:18:44;12.10;99.90
14687;DHT22;7431;49.440;11.084;2023-03-24T04:26:59;12.20;99.90
14687;DHT22;7431;49.440;11.084;2023-03-24T04:34:47;12.10;99.90
14687;DHT22;7431;49.440;11.084;2023-03-24T04:37:32;12.10;99.90
14687;DHT22;7431;49.440;11.084;2023-03-24T04:40:13;12.10;99.90
14687;DHT22;7431;49.440;11.084;2023-03-24T04:42:45;12.20;99.90
14687;DHT22;7431;49.440;11.084;2023-03-24T04:45:13;12.10;99.90
14687;DHT22;7431;49.440;11.084;2023-03-24T04:47:44;12.20;99.90
14687;DHT22;7431;49.440;11.084;2023-03-24T04:50:11;12.20;99.90
14687;DHT22;7431;49.440;11.084;2023-03-24T04:52:38;12.20;99.90
14687;DHT22;7431;49.440;11.084;2023-03-24T04:57:46;12.30;99.90
14687;DHT22;7431;49.440;11.084;2023-03-24T05:00:12;12.20;99.90
14687;DHT22;7431;49.440;11.084;2023-03-24T05:02:38;12.30;99.90
14687;DHT22;7431;49.440;11.084;2023-03-24T05:05:04;12.30;99.90
14687;DHT22;7431;49.440;11.084;2023-03-24T05:07:29;12.40;99.90
14687;DHT22;7431;49.440;11.084;2023-03-24T05:09:56;12.40;99.90
14687;DHT22;7431;49.440;11.084;2023-03-24T05:12:21;12.40;99.90
14687;DHT22;7431;49.440;11.084;2023-03-24T05:14:47;12.40;99.90
14687;DHT22;7431;49.440;11.084;2023-03-24T05:17:12;12.40;99.90
14687;DHT22;7431;49.440;11.084;2023-03-24T05:19:38;12.60;99.90
14687;DHT22;7431;49.440;11.084;2023-03-24T05:22:03;12.40;99.90
14687;DHT22;7431;49.440;11.084;2023-03-24T05:24:29;12.40;99.90
14687;DHT22;7431;49.440;11.084;2023-03-24T05:26:54;12.40;99.90
14687;DHT22;7431;49.440;11.084;2023-03-24T05:29:20;12.50;99.90
14687;DHT22;7431;49.440;11.084;2023-03-24T05:31:46;12.50;99.90
14687;DHT22;7431;49.440;11.084;2023-03-24T05:34:11;12.60;99.90
14687;DHT22;7431;49.440;11.084;2023-03-24T05:36:37;12.60;99.90
14687;DHT22;7431;49.440;11.084;2023-03-24T05:39:03;12.60;99.90
14687;DHT22;7431;49.440;11.084;2023-03-24T05:41:28;12.60;99.90
14687;DHT22;7431;49.440;11.084;2023-03-24T05:43:54;12.70;99.90
14687;DHT22;7431;49.440;11.084;2023-03-24T05:46:20;12.80;99.90
14687;DHT22;7431;49.440;11.084;2023-03-24T05:48:45;12.80;99.90
14687;DHT22;7431;49.440;11.084;2023-03-24T05:51:11;12.90;99.90
14687;DHT22;7431;49.440;11.084;2023-03-24T05:53:36;12.90;99.90
14687;DHT22;7431;49.440;11.084;2023-03-24T05:56:02;12.90;99.90
14687;DHT22;7431;49.440;11.084;2023-03-24T05:58:28;12.90;99.90
14687;DHT22;7431;49.440;11.084;2023-03-24T06:00:53;13.00;99.90
14687;DHT22;7431;49.440;11.084;2023-03-24T06:03:19;13.00;99.90
14687;DHT22;7431;49.440;11.084;2023-03-24T06:05:44;13.00;99.90
14687;DHT22;7431;49.440;11.084;2023-03-24T06:08:12;13.10;99.90
14687;DHT22;7431;49.440;11.084;2023-03-24T06:10:37;13.10;99.90
14687;DHT22;7431;49.440;11.084;2023-03-24T06:13:03;13.10;99.90
14687;DHT22;7431;49.440;11.084;2023-03-24T06:15:28;13.10;99.90
14687;DHT22;7431;49.440;11.084;2023-03-24T06:17:55;13.20;99.90
14687;DHT22;7431;49.440;11.084;2023-03-24T06:20:21;13.20;99.90
14687;DHT22;7431;49.440;11.084;2023-03-24T06:22:47;13.30;99.90
14687;DHT22;7431;49.440;11.084;2023-03-24T06:25:15;13.30;99.90
14687;DHT22;7431;49.440;11.084;2023-03-24T06:27:43;13.40;99.90
14687;DHT22;7431;49.440;11.084;2023-03-24T06:30:14;13.40;99.90
14687;DHT22;7431;49.440;11.084;2023-03-24T06:32:40;13.40;99.90
14687;DHT22;7431;49.440;11.084;2023-03-24T06:35:07;13.40;99.90
14687;DHT22;7431;49.440;11.084;2023-03-24T06:37:33;13.40;99.90
14687;DHT22;7431;49.440;11.084;2023-03-24T06:39:58;13.40;99.90
14687;DHT22;7431;49.440;11.084;2023-03-24T06:42:24;13.30;99.90
14687;DHT22;7431;49.440;11.084;2023-03-24T06:44:51;13.30;99.90
14687;DHT22;7431;49.440;11.084;2023-03-24T06:47:17;13.30;99.90
14687;DHT22;7431;49.440;11.084;2023-03-24T06:49:42;13.30;99.90
14687;DHT22;7431;49.440;11.084;2023-03-24T06:52:08;13.30;99.90
14687;DHT22;7431;49.440;11.084;2023-03-24T06:54:33;13.30;99.90
14687;DHT22;7431;49.440;11.084;2023-03-24T06:56:59;13.30;99.90
14687;DHT22;7431;49.440;11.084;2023-03-24T06:59:25;13.30;99.90
14687;DHT22;7431;49.440;11.084;2023-03-24T07:01:51;13.40;99.90
14687;DHT22;7431;49.440;11.084;2023-03-24T07:04:17;13.50;99.90
14687;DHT22;7431;49.440;11.084;2023-03-24T07:06:43;13.70;99.90
14687;DHT22;7431;49.440;11.084;2023-03-24T07:09:10;14.00;99.90
14687;DHT22;7431;49.440;11.084;2023-03-24T07:11:40;14.20;99.90
14687;DHT22;7431;49.440;11.084;2023-03-24T07:14:06;14.30;99.90
14687;DHT22;7431;49.440;11.084;2023-03-24T07:16:31;14.40;99.90
14687;DHT22;7431;49.440;11.084;2023-03-24T07:18:57;14.40;99.90
14687;DHT22;7431;49.440;11.084;2023-03-24T07:21:23;14.50;99.90
14687;DHT22;7431;49.440;11.084;2023-03-24T07:23:48;14.60;99.90
14687;DHT22;7431;49.440;11.084;2023-03-24T07:26:14;14.60;99.90
14687;DHT22;7431;49.440;11.084;2023-03-24T07:28:40;14.60;99.90
14687;DHT22;7431;49.440;11.084;2023-03-24T07:31:06;14.60;99.90
14687;DHT22;7431;49.440;11.084;2023-03-24T07:33:35;14.60;99.90
14687;DHT22;7431;49.440;11.084;2023-03-24T07:36:02;14.70;99.90
14687;DHT22;7431;49.440;11.084;2023-03-24T07:38:27;14.70;99.90
14687;DHT22;7431;49.440;11.084;2023-03-24T07:40:53;14.60;99.90
14687;DHT22;7431;49.440;11.084;2023-03-24T07:43:19;14.50;99.90
14687;DHT22;7431;49.440;11.084;2023-03-24T07:45:46;14.30;99.90
14687;DHT22;7431;49.440;11.084;2023-03-24T07:48:11;14.30;99.90
14687;DHT22;7431;49.440;11.084;2023-03-24T07:50:37;14.30;99.90
14687;DHT22;7431;49.440;11.084;2023-03-24T07:53:03;14.30;99.90
14687;DHT22;7431;49.440;11.084;2023-03-24T07:55:28;14.30;99.90
14687;DHT22;7431;49.440;11.084;2023-03-24T07:57:54;14.30;99.90
14687;DHT22;7431;49.440;11.084;2023-03-24T08:00:21;14.30;99.90
14687;DHT22;7431;49.440;11.084;2023-03-24T08:02:50;14.30;99.90
14687;DHT22;7431;49.440;11.084;2023-03-24T08:05:17;14.40;99.90
14687;DHT22;7431;49.440;11.084;2023-03-24T08:07:46;14.50;99.90
14687;DHT22;7431;49.440;11.084;2023-03-24T08:10:19;14.50;99.90
14687;DHT22;7431;49.440;11.084;2023-03-24T08:12:46;14.60;99.90
14687;DHT22;7431;49.440;11.084;2023-03-24T08:15:12;14.60;99.90
14687;DHT22;7431;49.440;11.084;2023-03-24T08:17:38;14.60;99.90
14687;DHT22;7431;49.440;11.084;2023-03-24T08:20:04;14.70;99.90
14687;DHT22;7431;49.440;11.084;2023-03-24T08:22:34;14.80;99.90
14687;DHT22;7431;49.440;11.084;2023-03-24T08:25:01;14.70;99.90
14687;DHT22;7431;49.440;11.084;2023-03-24T08:27:26;14.80;99.90
14687;DHT22;7431;49.440;11.084;2023-03-24T08:29:52;14.80;99.90
14687;DHT22;7431;49.440;11.084;2023-03-24T08:32:17;14.80;99.90
14687;DHT22;7431;49.440;11.084;2023-03-24T08:34:43;14.80;99.90
14687;DHT22;7431;49.440;11.084;2023-03-24T08:37:08;14.70;99.90
14687;DHT22;7431;49.440;11.084;2023-03-24T08:39:36;14.70;99.90
14687;DHT22;7431;49.440;11.084;2023-03-24T08:42:02;14.70;99.90
14687;DHT22;7431;49.440;11.084;2023-03-24T08:44:27;14.70;99.90
14687;DHT22;7431;49.440;11.084;2023-03-24T08:46:53;14.70;99.90
14687;DHT22;7431;49.440;11.084;2023-03-24T08:49:19;14.60;99.90
14687;DHT22;7431;49.440;11.084;2023-03-24T08:51:44;14.70;99.90
14687;DHT22;7431;49.440;11.084;2023-03-24T08:54:10;14.80;99.90
14687;DHT22;7431;49.440;11.084;2023-03-24T08:56:37;14.80;99.90
14687;DHT22;7431;49.440;11.084;2023-03-24T08:59:03;14.80;99.90
14687;DHT22;7431;49.440;11.084;2023-03-24T09:01:29;14.80;99.90
14687;DHT22;7431;49.440;11.084;2023-03-24T09:03:55;14.80;99.90
14687;DHT22;7431;49.440;11.084;2023-03-24T09:06:22;14.80;99.90
14687;DHT22;7431;49.440;11.084;2023-03-24T09:08:47;14.60;99.90
14687;DHT22;7431;49.440;11.084;2023-03-24T09:11:18;14.60;99.90
14687;DHT22;7431;49.440;11.084;2023-03-24T09:13:44;14.50;99.90
14687;DHT22;7431;49.440;11.084;2023-03-24T09:16:10;14.60;99.90
14687;DHT22;7431;49.440;11.084;2023-03-24T09:18:36;14.60;99.90
14687;DHT22;7431;49.440;11.084;2023-03-24T09:21:02;14.50;99.90
14687;DHT22;7431;49.440;11.084;2023-03-24T09:23:27;14.50;99.90
